createdAt,value
2022-10-02T00:00:36.347Z,67.32
2022-10-02T00:03:26.084Z,67.65
2022-10-02T00:06:03.933Z,67.51
2022-10-02T00:08:34.704Z,67.44
2022-10-02T00:11:17.514Z,67.53
2022-10-02T00:14:00.376Z,67.88
2022-10-02T00:16:48.682Z,67.91
2022-10-02T00:19:19.775Z,67.62
2022-10-02T00:22:14.380Z,68.13
2022-10-02T00:24:55.088Z,68.15
2022-10-02T00:27:46.341Z,67.88
2022-10-02T00:30:16.652Z,68.00
2022-10-02T00:33:07.058Z,68.24
2022-10-02T00:35:52.884Z,68.25
2022-10-02T00:38:29.915Z,68.24
2022-10-02T00:41:27.688Z,68.42
2022-10-02T00:44:34.251Z,68.47
2022-10-02T00:47:12.665Z,68.51
2022-10-02T00:49:58.954Z,68.45
2022-10-02T00:52:34.664Z,68.62
2022-10-02T00:55:28.954Z,68.71
2022-10-02T00:57:58.455Z,68.63
2022-10-02T01:00:25.163Z,68.42
2022-10-02T01:03:06.666Z,68.97
2022-10-02T01:05:34.140Z,68.90
2022-10-02T01:08:01.345Z,69.00
2022-10-02T01:10:28.947Z,69.30
2022-10-02T01:12:57.144Z,69.11
2022-10-02T01:15:33.434Z,69.39
2022-10-02T01:18:02.258Z,69.11
2022-10-02T01:20:41.906Z,69.11
2022-10-02T01:23:15.538Z,69.11
2022-10-02T01:25:42.240Z,68.91
2022-10-02T01:28:09.127Z,68.99
2022-10-02T01:30:39.149Z,69.02
2022-10-02T01:33:06.031Z,68.81
2022-10-02T01:35:35.628Z,69.08
2022-10-02T01:38:09.010Z,69.69
2022-10-02T01:40:38.088Z,69.07
2022-10-02T01:43:09.012Z,69.35
2022-10-02T01:45:41.229Z,69.58
2022-10-02T01:48:16.566Z,69.78
2022-10-02T01:50:51.903Z,69.72
2022-10-02T01:53:36.799Z,70.12
2022-10-02T01:56:21.708Z,70.09
2022-10-02T01:59:19.017Z,70.37
2022-10-02T02:02:03.014Z,70.31
2022-10-02T02:04:42.063Z,70.12
2022-10-02T02:07:16.436Z,70.24
2022-10-02T02:10:24.094Z,70.56
2022-10-02T02:13:02.295Z,70.41
2022-10-02T02:15:37.953Z,70.11
2022-10-02T02:18:11.826Z,70.07
2022-10-02T02:20:53.281Z,70.67
2022-10-02T02:23:28.737Z,70.40
2022-10-02T02:26:02.884Z,70.24
2022-10-02T02:28:32.592Z,70.32
2022-10-02T02:31:07.099Z,70.12
2022-10-02T02:33:49.311Z,70.50
2022-10-02T02:36:19.777Z,70.58
2022-10-02T02:38:51.322Z,70.35
2022-10-02T02:41:24.788Z,70.35
2022-10-02T02:43:59.674Z,70.46
2022-10-02T02:46:56.467Z,70.58
2022-10-02T02:49:27.358Z,70.67
2022-10-02T02:51:57.386Z,70.62
2022-10-02T02:54:35.121Z,70.72
2022-10-02T02:57:05.112Z,70.51
2022-10-02T02:59:33.969Z,70.50
2022-10-02T03:02:00.704Z,70.41
2022-10-02T03:04:27.355Z,70.56
2022-10-02T03:07:01.111Z,70.54
2022-10-02T03:09:32.349Z,70.34
2022-10-02T03:12:04.996Z,70.40
2022-10-02T03:14:49.551Z,70.15
2022-10-02T03:17:53.645Z,70.35
2022-10-02T03:20:40.135Z,70.03
2022-10-02T03:23:28.071Z,69.76
2022-10-02T03:26:03.196Z,70.10
2022-10-02T03:28:55.698Z,70.03
2022-10-02T03:31:25.022Z,69.54
2022-10-02T03:33:53.878Z,69.77
2022-10-02T03:36:22.438Z,69.82
2022-10-02T03:39:12.622Z,69.75
2022-10-02T03:41:37.716Z,69.77
2022-10-02T03:44:04.244Z,69.69
2022-10-02T03:46:30.886Z,70.00
2022-10-02T03:48:57.657Z,70.09
2022-10-02T03:51:24.525Z,70.00
2022-10-02T03:53:52.168Z,70.06
2022-10-02T03:56:38.969Z,70.16
2022-10-02T03:59:14.946Z,70.12
2022-10-02T04:01:49.079Z,69.99
2022-10-02T04:04:23.294Z,70.09
2022-10-02T04:07:04.868Z,70.05
2022-10-02T04:09:44.676Z,70.13
2022-10-02T04:12:16.859Z,69.95
2022-10-02T04:15:02.134Z,70.25
2022-10-02T04:17:54.690Z,70.19
2022-10-02T04:20:44.974Z,70.31
2022-10-02T04:23:20.826Z,70.00
2022-10-02T04:25:52.571Z,70.27
2022-10-02T04:28:26.407Z,70.28
2022-10-02T04:30:54.074Z,70.31
2022-10-02T04:33:23.151Z,70.69
2022-10-02T04:35:52.446Z,70.68
2022-10-02T04:38:43.555Z,71.27
2022-10-02T04:41:18.712Z,70.66
2022-10-02T04:43:57.111Z,71.11
2022-10-02T04:46:49.666Z,71.26
2022-10-02T04:49:38.039Z,71.23
2022-10-02T04:52:41.618Z,71.39
2022-10-02T04:55:26.744Z,70.99
2022-10-02T04:58:25.056Z,71.19
2022-10-02T05:01:03.612Z,71.02
2022-10-02T05:03:42.089Z,70.81
2022-10-02T05:06:30.477Z,70.88
2022-10-02T05:09:00.029Z,70.81
2022-10-02T05:11:54.833Z,70.95
2022-10-02T05:14:36.264Z,70.93
2022-10-02T05:17:30.367Z,71.14
2022-10-02T05:20:18.750Z,71.17
2022-10-02T05:23:04.332Z,71.27
2022-10-02T05:25:40.012Z,71.41
2022-10-02T05:28:31.509Z,71.59
2022-10-02T05:31:09.412Z,71.79
2022-10-02T05:33:52.530Z,71.75
2022-10-02T05:36:44.820Z,71.67
2022-10-02T05:39:22.790Z,71.56
2022-10-02T05:42:00.576Z,71.51
2022-10-02T05:44:42.911Z,71.43
2022-10-02T05:47:23.497Z,71.37
2022-10-02T05:49:59.771Z,71.38
2022-10-02T05:52:40.611Z,71.49
2022-10-02T05:55:21.430Z,71.47
2022-10-02T05:57:55.058Z,71.63
2022-10-02T06:00:36.029Z,71.93
2022-10-02T06:03:17.971Z,71.88
2022-10-02T06:05:50.500Z,71.76
2022-10-02T06:08:22.261Z,71.84
2022-10-02T06:10:54.179Z,71.89
2022-10-02T06:13:30.038Z,72.01
2022-10-02T06:16:12.252Z,72.12
2022-10-02T06:18:44.087Z,72.09
2022-10-02T06:21:28.283Z,72.42
2022-10-02T06:24:00.417Z,72.13
2022-10-02T06:26:40.187Z,72.31
2022-10-02T06:29:18.747Z,72.41
2022-10-02T06:32:05.185Z,72.53
2022-10-02T06:34:31.757Z,72.24
2022-10-02T06:37:13.456Z,72.52
2022-10-02T06:40:04.458Z,72.54
2022-10-02T06:42:43.744Z,72.49
2022-10-02T06:45:35.779Z,72.44
2022-10-02T06:48:08.185Z,72.23
2022-10-02T06:50:56.357Z,72.46
2022-10-02T06:53:50.950Z,72.33
2022-10-02T06:56:23.433Z,71.89
2022-10-02T06:59:08.175Z,72.03
2022-10-02T07:01:57.542Z,72.26
2022-10-02T07:04:45.657Z,72.19
2022-10-02T07:07:26.594Z,72.25
2022-10-02T07:10:10.768Z,72.29
2022-10-02T07:12:49.485Z,72.29
2022-10-02T07:15:26.127Z,72.37
2022-10-02T07:17:52.618Z,72.33
2022-10-02T07:20:21.941Z,72.59
2022-10-02T07:22:51.479Z,72.71
2022-10-02T07:25:46.059Z,72.93
2022-10-02T07:28:27.830Z,72.71
2022-10-02T07:31:04.299Z,72.78
2022-10-02T07:34:07.301Z,72.89
2022-10-02T07:36:52.542Z,72.95
2022-10-02T07:39:42.908Z,72.70
2022-10-02T07:42:38.802Z,72.66
2022-10-02T07:45:27.572Z,72.52
2022-10-02T07:48:31.558Z,72.48
2022-10-02T07:51:35.062Z,72.33
2022-10-02T07:54:12.148Z,72.64
2022-10-02T07:56:40.024Z,72.76
2022-10-02T07:59:12.366Z,72.81
2022-10-02T08:01:41.623Z,72.98
2022-10-02T08:04:18.838Z,72.75
2022-10-02T08:06:50.075Z,72.81
2022-10-02T08:09:27.791Z,72.68
2022-10-02T08:12:00.209Z,72.45
2022-10-02T08:14:42.629Z,71.89
2022-10-02T08:17:34.951Z,72.09
2022-10-02T08:20:47.722Z,71.76
2022-10-02T08:23:34.120Z,71.76
2022-10-02T08:26:08.798Z,71.92
2022-10-02T08:28:44.490Z,72.00
2022-10-02T08:31:13.437Z,72.17
2022-10-02T08:33:40.579Z,71.77
2022-10-02T08:36:25.659Z,71.77
2022-10-02T08:39:18.860Z,71.33
2022-10-02T08:42:05.602Z,71.48
2022-10-02T08:44:57.514Z,71.29
2022-10-02T08:47:48.861Z,71.51
2022-10-02T08:50:53.178Z,71.65
2022-10-02T08:53:45.023Z,72.02
2022-10-02T08:56:20.188Z,72.19
2022-10-02T08:59:08.698Z,71.29
2022-10-02T09:01:50.874Z,70.99
2022-10-02T09:04:29.403Z,70.77
2022-10-02T09:07:04.927Z,70.68
2022-10-02T09:09:58.923Z,70.69
2022-10-02T09:12:44.161Z,70.71
2022-10-02T09:15:52.721Z,70.05
2022-10-02T09:18:49.055Z,69.73
2022-10-02T09:21:18.922Z,70.22
2022-10-02T09:24:03.802Z,70.25
2022-10-02T09:26:45.770Z,70.50
2022-10-02T09:29:30.952Z,70.93
2022-10-02T09:32:12.722Z,71.80
2022-10-02T09:35:16.953Z,70.38
2022-10-02T09:37:53.419Z,69.61
2022-10-02T09:40:58.530Z,69.71
2022-10-02T09:44:03.577Z,69.21
2022-10-02T09:47:00.196Z,69.22
2022-10-02T09:49:57.562Z,68.99
2022-10-02T09:52:24.035Z,69.51
2022-10-02T09:55:15.277Z,67.58
2022-10-02T09:57:54.570Z,68.04
2022-10-02T10:01:11.923Z,67.94
2022-10-02T10:03:57.200Z,68.28
2022-10-02T10:07:03.615Z,68.09
2022-10-02T10:09:57.668Z,67.92
2022-10-02T10:13:03.801Z,68.03
2022-10-02T10:16:22.327Z,67.88
2022-10-02T10:19:02.961Z,66.97
2022-10-02T10:21:44.735Z,67.30
2022-10-02T10:24:39.804Z,66.79
2022-10-02T10:27:16.224Z,66.04
2022-10-02T10:30:15.384Z,65.10
2022-10-02T10:33:00.360Z,64.36
2022-10-02T10:36:04.604Z,64.37
2022-10-02T10:38:37.193Z,64.40
2022-10-02T10:41:55.959Z,63.75
2022-10-02T10:44:40.945Z,64.85
2022-10-02T10:47:33.709Z,62.85
2022-10-02T10:50:24.522Z,62.21
2022-10-02T10:53:17.172Z,61.53
2022-10-02T10:56:06.466Z,62.01
2022-10-02T10:58:57.461Z,61.69
2022-10-02T11:01:45.265Z,61.43
2022-10-02T11:05:07.205Z,62.32
2022-10-02T11:07:40.723Z,62.16
2022-10-02T11:10:31.939Z,62.03
2022-10-02T11:13:11.049Z,64.28
2022-10-02T11:16:06.550Z,63.66
2022-10-02T11:18:52.344Z,64.97
2022-10-02T11:21:43.428Z,65.24
2022-10-02T11:24:51.160Z,62.36
2022-10-02T11:27:23.391Z,61.71
2022-10-02T11:29:55.060Z,61.82
2022-10-02T11:32:51.248Z,57.11
2022-10-02T11:35:30.386Z,54.84
2022-10-02T11:38:22.981Z,55.16
2022-10-02T11:40:58.343Z,55.02
2022-10-02T11:43:59.753Z,51.09
2022-10-02T11:46:53.853Z,45.85
2022-10-02T11:50:01.131Z,48.56
2022-10-02T11:52:48.659Z,49.96
2022-10-02T11:55:24.172Z,50.85
2022-10-02T11:57:53.703Z,50.11
2022-10-02T12:01:05.728Z,48.60
2022-10-02T12:03:50.942Z,49.45
2022-10-02T12:06:53.016Z,47.00
2022-10-02T12:09:35.486Z,50.09
2022-10-02T12:12:17.111Z,45.98
2022-10-02T12:14:56.696Z,45.86
2022-10-02T12:17:38.039Z,45.06
2022-10-02T12:20:50.691Z,43.14
2022-10-02T12:23:54.584Z,44.71
2022-10-02T12:27:14.949Z,46.28
2022-10-02T12:30:00.886Z,45.62
2022-10-02T12:32:49.995Z,43.11
2022-10-02T12:35:26.243Z,45.29
2022-10-02T12:38:19.726Z,47.13
2022-10-02T12:41:17.555Z,46.46
2022-10-02T12:44:05.716Z,46.20
2022-10-02T12:46:32.247Z,48.05
2022-10-02T12:49:20.002Z,46.41
2022-10-02T12:52:27.722Z,45.96
2022-10-02T12:55:09.519Z,45.35
2022-10-02T12:57:58.800Z,47.06
2022-10-02T13:01:22.543Z,43.49
2022-10-02T13:04:07.415Z,40.42
2022-10-02T13:06:37.300Z,41.15
2022-10-02T13:09:29.197Z,38.65
2022-10-02T13:12:09.754Z,39.12
2022-10-02T13:15:09.784Z,39.61
2022-10-02T13:17:47.349Z,38.80
2022-10-02T13:20:32.701Z,39.79
2022-10-02T13:23:21.449Z,37.89
2022-10-02T13:25:58.743Z,39.52
2022-10-02T13:28:25.270Z,40.29
2022-10-02T13:31:04.561Z,38.28
2022-10-02T13:34:01.938Z,40.32
2022-10-02T13:36:36.174Z,40.64
2022-10-02T13:39:30.652Z,39.97
2022-10-02T13:42:25.593Z,39.30
2022-10-02T13:45:15.388Z,37.29
2022-10-02T13:48:05.781Z,37.11
2022-10-02T13:50:41.388Z,37.27
2022-10-02T13:53:34.766Z,37.95
2022-10-02T13:56:20.852Z,38.25
2022-10-02T13:59:05.788Z,34.68
2022-10-02T14:01:59.118Z,36.15
2022-10-02T14:04:47.600Z,37.04
2022-10-02T14:07:25.983Z,36.86
2022-10-02T14:09:58.603Z,37.36
2022-10-02T14:12:50.633Z,39.56
2022-10-02T14:15:33.578Z,38.08
2022-10-02T14:18:52.493Z,37.76
2022-10-02T14:21:34.657Z,38.15
2022-10-02T14:27:36.337Z,37.17
2022-10-02T14:30:15.824Z,36.20
2022-10-02T14:32:54.167Z,36.84
2022-10-02T14:35:35.599Z,36.42
2022-10-02T14:38:20.816Z,36.63
2022-10-02T14:40:56.085Z,35.01
2022-10-02T14:43:34.402Z,35.81
2022-10-02T14:46:07.908Z,34.83
2022-10-02T14:49:01.818Z,35.32
2022-10-02T14:52:03.578Z,36.36
2022-10-02T14:54:35.826Z,37.16
2022-10-02T14:57:34.993Z,37.50
2022-10-02T15:00:01.489Z,37.00
2022-10-02T15:02:42.803Z,35.90
2022-10-02T15:05:41.302Z,35.68
2022-10-02T15:08:15.643Z,34.62
2022-10-02T15:10:46.078Z,34.15
2022-10-02T15:13:28.513Z,34.09
2022-10-02T15:16:59.873Z,35.06
2022-10-02T15:19:50.135Z,33.95
2022-10-02T15:22:26.091Z,33.64
2022-10-02T15:25:06.828Z,33.97
2022-10-02T15:28:31.252Z,35.11
2022-10-02T15:30:59.873Z,34.83
2022-10-02T15:33:46.289Z,35.67
2022-10-02T15:36:21.480Z,35.23
2022-10-02T15:39:26.518Z,36.17
2022-10-02T15:42:12.770Z,36.61
2022-10-02T15:45:08.614Z,37.69
2022-10-02T15:48:14.696Z,37.73
2022-10-02T15:50:53.662Z,38.54
2022-10-02T15:53:36.865Z,39.07
2022-10-02T15:56:27.533Z,39.22
2022-10-02T15:59:29.749Z,39.84
2022-10-02T16:02:24.184Z,39.41
2022-10-02T16:05:29.456Z,40.70
2022-10-02T16:08:04.704Z,41.09
2022-10-02T16:10:45.406Z,41.34
2022-10-02T16:13:38.040Z,41.88
2022-10-02T16:16:28.442Z,42.52
2022-10-02T16:19:26.148Z,42.83
2022-10-02T16:22:21.136Z,43.12
2022-10-02T16:25:15.194Z,43.32
2022-10-02T16:27:57.007Z,43.29
2022-10-02T16:30:26.505Z,43.92
2022-10-02T16:33:17.682Z,44.11
2022-10-02T16:35:56.292Z,44.62
2022-10-02T16:38:41.459Z,44.42
2022-10-02T16:41:24.526Z,44.96
2022-10-02T16:44:23.300Z,44.73
2022-10-02T16:46:59.021Z,45.08
2022-10-02T16:49:43.549Z,45.57
2022-10-02T16:52:22.246Z,45.71
2022-10-02T16:54:48.987Z,46.15
2022-10-02T16:57:29.598Z,46.08
2022-10-02T17:00:06.756Z,46.04
2022-10-02T17:02:43.514Z,46.39
2022-10-02T17:05:23.553Z,46.25
2022-10-02T17:08:16.768Z,46.34
2022-10-02T17:11:05.729Z,46.82
2022-10-02T17:13:37.431Z,47.00
2022-10-02T17:16:21.100Z,47.07
2022-10-02T17:18:57.313Z,47.18
2022-10-02T17:21:44.624Z,47.08
2022-10-02T17:24:14.198Z,47.44
2022-10-02T17:26:52.045Z,47.65
2022-10-02T17:29:26.615Z,47.68
2022-10-02T17:31:54.983Z,47.66
2022-10-02T17:34:21.539Z,47.92
2022-10-02T17:37:05.588Z,47.94
2022-10-02T17:39:44.410Z,48.26
2022-10-02T17:42:32.776Z,48.51
2022-10-02T17:45:15.388Z,48.79
2022-10-02T17:47:50.956Z,48.74
2022-10-02T17:50:33.643Z,49.25
2022-10-02T17:53:43.106Z,49.12
2022-10-02T17:56:30.751Z,49.41
2022-10-02T17:59:05.350Z,50.08
2022-10-02T18:01:50.454Z,50.13
2022-10-02T18:04:45.923Z,49.99
2022-10-02T18:07:35.670Z,50.08
2022-10-02T18:10:28.741Z,50.65
2022-10-02T18:13:14.476Z,50.46
2022-10-02T18:15:59.953Z,50.56
2022-10-02T18:18:40.453Z,50.56
2022-10-02T18:21:41.455Z,50.79
2022-10-02T18:24:40.448Z,50.89
2022-10-02T18:27:26.625Z,51.38
2022-10-02T18:30:30.142Z,51.48
2022-10-02T18:33:28.530Z,51.64
2022-10-02T18:36:00.098Z,51.70
2022-10-02T18:38:42.761Z,51.97
2022-10-02T18:41:19.246Z,52.04
2022-10-02T18:44:07.232Z,52.16
2022-10-02T18:46:55.006Z,52.25
2022-10-02T18:49:41.742Z,52.35
2022-10-02T18:52:24.397Z,52.52
2022-10-02T18:55:18.631Z,52.42
2022-10-02T18:58:04.499Z,52.41
2022-10-02T19:00:52.535Z,52.85
2022-10-02T19:03:19.044Z,52.72
2022-10-02T19:06:15.218Z,52.92
2022-10-02T19:09:04.046Z,52.97
2022-10-02T19:11:33.312Z,53.18
2022-10-02T19:14:27.653Z,53.49
2022-10-02T19:17:24.519Z,53.45
2022-10-02T19:19:51.043Z,53.32
2022-10-02T19:22:22.345Z,53.56
2022-10-02T19:25:03.604Z,53.62
2022-10-02T19:27:34.913Z,53.75
2022-10-02T19:30:06.351Z,54.06
2022-10-02T19:32:41.305Z,54.10
2022-10-02T19:35:29.420Z,54.24
2022-10-02T19:38:09.178Z,54.28
2022-10-02T19:40:37.022Z,54.08
2022-10-02T19:43:25.518Z,54.56
2022-10-02T19:45:56.969Z,54.36
2022-10-02T19:48:27.074Z,54.42
2022-10-02T19:50:59.077Z,54.70
2022-10-02T19:53:37.970Z,54.86
2022-10-02T19:56:43.832Z,54.87
2022-10-02T19:59:25.490Z,55.03
2022-10-02T20:01:54.008Z,54.92
2022-10-02T20:04:26.554Z,55.24
2022-10-02T20:06:56.545Z,55.37
2022-10-02T20:09:25.278Z,55.15
2022-10-02T20:12:06.311Z,55.32
2022-10-02T20:14:42.609Z,55.75
2022-10-02T20:17:12.837Z,55.48
2022-10-02T20:19:51.823Z,55.92
2022-10-02T20:22:30.532Z,55.88
2022-10-02T20:25:11.992Z,56.08
2022-10-02T20:27:46.285Z,56.09
2022-10-02T20:30:17.995Z,56.24
2022-10-02T20:32:59.791Z,56.30
2022-10-02T20:35:36.257Z,56.34
2022-10-02T20:38:22.210Z,56.91
2022-10-02T20:40:53.276Z,56.44
2022-10-02T20:43:45.013Z,56.77
2022-10-02T20:46:29.826Z,56.92
2022-10-02T20:49:09.469Z,57.16
2022-10-02T20:52:07.869Z,57.24
2022-10-02T20:55:12.419Z,57.29
2022-10-02T20:58:14.028Z,57.47
2022-10-02T21:00:51.963Z,57.18
2022-10-02T21:03:42.973Z,57.85
2022-10-02T21:06:30.753Z,57.97
2022-10-02T21:09:16.077Z,57.61
2022-10-02T21:11:56.079Z,57.80
2022-10-02T21:15:00.912Z,58.59
2022-10-02T21:17:45.447Z,58.28
2022-10-02T21:20:33.408Z,58.47
2022-10-02T21:23:34.571Z,58.70
2022-10-02T21:26:27.098Z,58.86
2022-10-02T21:29:15.521Z,58.94
2022-10-02T21:31:56.392Z,59.05
2022-10-02T21:34:41.676Z,59.08
2022-10-02T21:37:34.737Z,59.22
2022-10-02T21:40:10.390Z,59.30
2022-10-02T21:43:13.977Z,59.26
2022-10-02T21:46:11.428Z,59.55
2022-10-02T21:49:13.730Z,59.53
2022-10-02T21:51:46.270Z,58.97
2022-10-02T21:55:04.112Z,59.54
2022-10-02T21:57:58.342Z,59.61
2022-10-02T22:00:27.266Z,59.18
2022-10-02T22:03:06.009Z,59.67
2022-10-02T22:06:05.550Z,59.63
2022-10-02T22:08:43.767Z,59.83
2022-10-02T22:11:42.524Z,59.71
2022-10-02T22:14:40.676Z,59.86
2022-10-02T22:17:23.516Z,59.93
2022-10-02T22:20:05.573Z,60.17
2022-10-02T22:23:14.680Z,60.25
2022-10-02T22:26:10.003Z,60.49
2022-10-02T22:28:51.448Z,60.73
2022-10-02T22:31:51.260Z,60.51
2022-10-02T22:34:41.608Z,60.65
2022-10-02T22:37:15.437Z,60.97
2022-10-02T22:40:16.712Z,60.89
2022-10-02T22:43:00.864Z,60.97
2022-10-02T22:46:16.846Z,61.03
2022-10-02T22:48:53.565Z,61.19
2022-10-02T22:51:20.032Z,60.64
2022-10-02T22:54:11.038Z,61.41
2022-10-02T22:56:44.776Z,61.23
2022-10-02T22:59:31.705Z,61.71
2022-10-02T23:02:47.155Z,61.68
2022-10-02T23:05:29.484Z,61.64
2022-10-02T23:08:07.150Z,61.80
2022-10-02T23:10:59.573Z,61.69
2022-10-02T23:13:41.994Z,61.96
2022-10-02T23:16:16.279Z,61.77
2022-10-02T23:18:49.500Z,61.35
2022-10-02T23:21:30.048Z,61.90
2022-10-02T23:24:20.337Z,62.10
2022-10-02T23:27:06.347Z,61.92
2022-10-02T23:30:08.077Z,62.00
2022-10-02T23:32:46.694Z,61.93
2022-10-02T23:35:21.367Z,61.71
2022-10-02T23:37:57.782Z,62.14
2022-10-02T23:41:12.374Z,62.63
2022-10-02T23:43:48.740Z,62.30
2022-10-02T23:46:26.032Z,62.56
2022-10-02T23:48:53.998Z,61.93
2022-10-02T23:51:23.583Z,62.31
2022-10-02T23:54:16.148Z,62.66
2022-10-02T23:57:02.885Z,61.96
2022-10-02T23:59:51.861Z,62.79
